createdAt,value
2023-05-10T00:00:11.218Z,1002.8
2023-05-10T00:01:12.136Z,1002.7
2023-05-10T00:02:13.259Z,1002.7
2023-05-10T00:03:14.212Z,1002.7
2023-05-10T00:04:15.265Z,1002.7
2023-05-10T00:05:16.190Z,1002.7
2023-05-10T00:06:17.231Z,1002.7
2023-05-10T00:07:18.216Z,1002.7
2023-05-10T00:08:19.177Z,1002.7
2023-05-10T00:09:20.220Z,1002.7
2023-05-10T00:10:21.134Z,1002.7
2023-05-10T00:11:23.096Z,1002.7
2023-05-10T00:12:23.169Z,1002.7
2023-05-10T00:13:24.227Z,1002
2023-05-10T00:14:25.182Z,1002.5
2023-05-10T00:15:26.233Z,1002.6
2023-05-10T00:16:27.158Z,1002.6
2023-05-10T00:17:28.225Z,1002.6
2023-05-10T00:18:29.203Z,1002.6
2023-05-10T00:19:30.186Z,1002.6
2023-05-10T00:20:31.221Z,1002.6
2023-05-10T00:21:32.209Z,1002.6
2023-05-10T00:22:33.218Z,1002.6
2023-05-10T00:23:34.196Z,1002.6
2023-05-10T00:24:35.167Z,1002.5
2023-05-10T00:25:36.237Z,1002.6
2023-05-10T00:26:37.174Z,1002.6
2023-05-10T00:27:38.235Z,1002.6
2023-05-10T00:28:39.190Z,1002.6
2023-05-10T00:29:40.239Z,1002.6
2023-05-10T00:30:41.189Z,1002.6
2023-05-10T00:31:42.229Z,1002.6
2023-05-10T00:32:43.213Z,1002.6
2023-05-10T00:33:44.178Z,1002.6
2023-05-10T00:34:45.210Z,1002.6
2023-05-10T00:35:46.215Z,1002.6
2023-05-10T00:36:47.211Z,1002.3
2023-05-10T00:37:48.212Z,1002.5
2023-05-10T00:38:49.192Z,1002.6
2023-05-10T00:39:50.216Z,1002.7
2023-05-10T00:40:51.211Z,1002.6
2023-05-10T00:41:52.210Z,1002.6
2023-05-10T00:42:53.205Z,1002.6
2023-05-10T00:43:54.218Z,1002.5
2023-05-10T00:44:55.195Z,1002.5
2023-05-10T00:45:56.273Z,1002.5
2023-05-10T00:46:57.280Z,1002.5
2023-05-10T00:47:58.167Z,1002.5
2023-05-10T00:48:59.204Z,1002.5
2023-05-10T00:50:00.261Z,1002.5
2023-05-10T00:51:01.272Z,1002.4
2023-05-10T00:52:02.212Z,1002.4
2023-05-10T00:53:03.174Z,1002.4
2023-05-10T00:54:04.211Z,1002.4
2023-05-10T00:55:05.198Z,1002.4
2023-05-10T00:56:06.192Z,1002.4
2023-05-10T00:57:07.218Z,1002.4
2023-05-10T00:58:08.251Z,1002.4
2023-05-10T00:59:09.213Z,1002.5
2023-05-10T01:00:10.254Z,1002.4
2023-05-10T01:01:11.201Z,1002.4
2023-05-10T01:02:12.323Z,1002.4
2023-05-10T01:03:13.260Z,1002.4
2023-05-10T01:04:14.220Z,1002.4
2023-05-10T01:05:15.305Z,1002.4
2023-05-10T01:06:16.232Z,1002.4
2023-05-10T01:07:17.220Z,1002.4
2023-05-10T01:08:18.274Z,1002.4
2023-05-10T01:09:19.311Z,1002.4
2023-05-10T01:10:20.212Z,1002.4
2023-05-10T01:11:21.175Z,1002.4
2023-05-10T01:12:22.327Z,1002.4
2023-05-10T01:13:23.192Z,1002.4
2023-05-10T01:14:24.209Z,1002.4
2023-05-10T01:15:25.302Z,1001.6
2023-05-10T01:16:26.331Z,1002.2
2023-05-10T01:17:27.272Z,1002.3
2023-05-10T01:18:28.195Z,1002.3
2023-05-10T01:19:29.283Z,1002.4
2023-05-10T01:20:30.235Z,1002.4
2023-05-10T01:21:31.248Z,1002.4
2023-05-10T01:22:32.254Z,1002.4
2023-05-10T01:23:33.217Z,1002.4
2023-05-10T01:24:34.596Z,1002.4
2023-05-10T01:25:35.214Z,1002.4
2023-05-10T01:26:36.214Z,1002.4
2023-05-10T01:27:37.219Z,1002.3
2023-05-10T01:28:38.224Z,1002.3
2023-05-10T01:29:39.236Z,1002.4
2023-05-10T01:30:40.243Z,1002.3
2023-05-10T01:31:41.291Z,1002.3
2023-05-10T01:32:42.309Z,1002.3
2023-05-10T01:36:43.276Z,1002.3
2023-05-10T01:37:44.183Z,1002.4
2023-05-10T01:38:45.226Z,1002.4
2023-05-10T01:39:46.250Z,1002.4
2023-05-10T01:40:47.295Z,1002.3
2023-05-10T01:41:48.244Z,1002.3
2023-05-10T01:42:49.221Z,1002.3
2023-05-10T01:43:50.240Z,1002.4
2023-05-10T01:44:51.280Z,1002.4
2023-05-10T01:45:52.344Z,1002.4
2023-05-10T01:46:53.296Z,1002.4
2023-05-10T01:47:54.661Z,1002.4
2023-05-10T01:48:55.238Z,1002.4
2023-05-10T01:49:56.239Z,1002.4
2023-05-10T01:50:57.261Z,1002.4
2023-05-10T01:51:58.217Z,1002.4
2023-05-10T01:52:59.262Z,1002.4
2023-05-10T01:54:00.266Z,1002.4
2023-05-10T01:55:01.278Z,1002.3
2023-05-10T01:56:02.246Z,1002.4
2023-05-10T01:57:03.237Z,1002.4
2023-05-10T01:58:04.259Z,1002.3
2023-05-10T01:59:05.253Z,1002.3
2023-05-10T02:00:06.357Z,1002.3
2023-05-10T02:01:07.326Z,1002.4
2023-05-10T02:02:08.244Z,1002.3
2023-05-10T02:03:09.330Z,1002.3
2023-05-10T02:04:10.310Z,1002.3
2023-05-10T02:05:11.239Z,1002.3
2023-05-10T02:06:12.257Z,1002.3
2023-05-10T02:07:13.178Z,1002.3
2023-05-10T02:08:14.306Z,1002.3
2023-05-10T02:09:15.299Z,1002.2
2023-05-10T02:10:16.450Z,1002.2
2023-05-10T02:11:17.320Z,1002.3
2023-05-10T02:12:18.226Z,1002.2
2023-05-10T02:13:19.250Z,1002.2
2023-05-10T02:14:20.292Z,1002.3
2023-05-10T02:15:21.222Z,1002.3
2023-05-10T02:16:22.331Z,1002.2
2023-05-10T02:17:23.284Z,1002.2
2023-05-10T02:18:24.264Z,1002.2
2023-05-10T02:19:25.260Z,1002.2
2023-05-10T02:20:26.261Z,1002.3
2023-05-10T02:21:27.205Z,1001.8
2023-05-10T02:22:28.283Z,1002.1
2023-05-10T02:23:29.252Z,1001.8
2023-05-10T02:24:30.192Z,1002.1
2023-05-10T02:25:31.325Z,1002.1
2023-05-10T02:26:32.241Z,1002.1
2023-05-10T02:27:33.252Z,1002.1
2023-05-10T02:28:34.234Z,1002.1
2023-05-10T02:29:35.280Z,1002.2
2023-05-10T02:30:36.264Z,1002.2
2023-05-10T02:31:37.401Z,1002.1
2023-05-10T02:32:38.330Z,1002.1
2023-05-10T02:33:39.277Z,1002.1
2023-05-10T02:34:40.282Z,1002.2
2023-05-10T02:35:41.277Z,1002.1
2023-05-10T02:36:42.280Z,1002.1
2023-05-10T02:37:43.260Z,1002.2
2023-05-10T02:38:44.259Z,1002.1
2023-05-10T02:39:45.242Z,1002.2
2023-05-10T02:40:46.245Z,1002.2
2023-05-10T02:41:47.319Z,1002.1
2023-05-10T02:42:48.310Z,1002.1
2023-05-10T02:43:49.300Z,1002.1
2023-05-10T02:44:50.261Z,1002.2
2023-05-10T02:45:51.270Z,1002.2
2023-05-10T02:46:52.259Z,1002.1
2023-05-10T02:47:53.299Z,1002.1
2023-05-10T02:48:54.261Z,1002.1
2023-05-10T02:49:55.285Z,1002.1
2023-05-10T02:50:56.281Z,1002.1
2023-05-10T02:51:57.243Z,1002.1
2023-05-10T02:52:58.345Z,1002.1
2023-05-10T02:53:59.290Z,1002.1
2023-05-10T02:55:00.310Z,1002.1
2023-05-10T02:56:01.342Z,1002.1
2023-05-10T02:57:02.314Z,1002.1
2023-05-10T02:58:03.291Z,1002.1
2023-05-10T02:59:04.281Z,1002.1
2023-05-10T03:00:05.282Z,1002.1
2023-05-10T03:01:06.331Z,1001.8
2023-05-10T03:02:07.267Z,1002
2023-05-10T03:03:08.318Z,1002.1
2023-05-10T03:04:09.266Z,1002.1
2023-05-10T03:05:10.287Z,1002.1
2023-05-10T03:06:11.260Z,1002.1
2023-05-10T03:07:12.375Z,1002.1
2023-05-10T03:08:13.322Z,1002.1
2023-05-10T03:09:14.264Z,1002.1
2023-05-10T03:10:15.441Z,1002.1
2023-05-10T03:11:16.325Z,1002.1
2023-05-10T03:12:17.362Z,1002.1
2023-05-10T03:13:18.383Z,1002.1
2023-05-10T03:14:19.328Z,1002.1
2023-05-10T03:15:20.303Z,1002.1
2023-05-10T03:16:21.304Z,1002.1
2023-05-10T03:17:22.423Z,1002.1
2023-05-10T03:18:23.290Z,1001.6
2023-05-10T03:19:24.329Z,1002
2023-05-10T03:20:25.324Z,1002
2023-05-10T03:21:26.283Z,1002
2023-05-10T03:22:27.322Z,1002.1
2023-05-10T03:23:28.301Z,1002.1
2023-05-10T03:24:29.323Z,1002.1
2023-05-10T03:25:30.290Z,1002.1
2023-05-10T03:26:31.232Z,1002.1
2023-05-10T03:27:32.243Z,1002.1
2023-05-10T03:28:33.283Z,1002.1
2023-05-10T03:29:34.302Z,1002.1
2023-05-10T03:30:35.266Z,1002.2
2023-05-10T03:31:36.393Z,1002.2
2023-05-10T03:32:37.420Z,1002.1
2023-05-10T03:33:38.282Z,1002.1
2023-05-10T03:34:39.325Z,1002.1
2023-05-10T03:35:40.242Z,1002.1
2023-05-10T03:36:41.283Z,1002.1
2023-05-10T03:37:42.284Z,1002.1
2023-05-10T03:38:43.323Z,1002.1
2023-05-10T03:39:44.323Z,1002.1
2023-05-10T03:40:45.302Z,1002.1
2023-05-10T03:41:46.344Z,1002.1
2023-05-10T03:42:47.283Z,1002
2023-05-10T03:43:48.305Z,1002.1
2023-05-10T03:44:49.283Z,1002
2023-05-10T03:45:50.320Z,1002.1
2023-05-10T03:46:51.302Z,1002.1
2023-05-10T03:47:52.307Z,1002.1
2023-05-10T03:48:53.355Z,1002.1
2023-05-10T03:49:54.328Z,1002.1
2023-05-10T03:50:55.347Z,1002
2023-05-10T03:51:56.304Z,1002
2023-05-10T03:52:57.303Z,1002.1
2023-05-10T03:53:58.322Z,1002
2023-05-10T03:54:59.310Z,1002.1
2023-05-10T03:56:00.284Z,1002.1
2023-05-10T03:57:01.382Z,1002
2023-05-10T03:58:02.382Z,1002
2023-05-10T03:59:03.346Z,1002
2023-05-10T04:00:04.546Z,1002.1
2023-05-10T04:01:05.302Z,1002
2023-05-10T04:02:06.407Z,1002
2023-05-10T04:03:07.405Z,1002
2023-05-10T04:04:08.366Z,1002
2023-05-10T04:05:09.346Z,1002
2023-05-10T04:06:10.357Z,1001.9
2023-05-10T04:07:11.374Z,1002
2023-05-10T04:08:12.647Z,1002
2023-05-10T04:09:13.327Z,1002
2023-05-10T04:10:14.377Z,1002
2023-05-10T04:11:15.287Z,1002
2023-05-10T04:12:16.328Z,1002
2023-05-10T04:13:17.322Z,1002
2023-05-10T04:14:18.425Z,1002
2023-05-10T04:15:19.341Z,1001.9
2023-05-10T04:16:20.482Z,1002
2023-05-10T04:17:21.310Z,1002
2023-05-10T04:18:22.406Z,1002
2023-05-10T04:19:23.303Z,1002
2023-05-10T04:20:24.293Z,1002
2023-05-10T04:21:25.307Z,1002
2023-05-10T04:22:26.353Z,1002
2023-05-10T04:23:27.363Z,1002
2023-05-10T04:24:28.322Z,1002
2023-05-10T04:25:29.323Z,1002
2023-05-10T04:26:30.330Z,1002
2023-05-10T04:27:31.311Z,1002
2023-05-10T04:28:32.343Z,1002
2023-05-10T04:29:33.273Z,1002
2023-05-10T04:30:34.310Z,1001.9
2023-05-10T04:31:35.365Z,1002
2023-05-10T04:32:36.337Z,1002
2023-05-10T04:33:37.479Z,1001.9
2023-05-10T04:34:38.303Z,1002
2023-05-10T04:35:39.302Z,1002
2023-05-10T04:36:40.325Z,1002
2023-05-10T04:37:41.366Z,1002
2023-05-10T04:38:42.362Z,1001.9
2023-05-10T04:39:43.349Z,1002
2023-05-10T04:40:44.346Z,1002
2023-05-10T04:41:45.336Z,1001.9
2023-05-10T04:42:46.369Z,1002
2023-05-10T04:43:47.289Z,1002
2023-05-10T04:44:48.328Z,1002
2023-05-10T04:45:49.384Z,1002
2023-05-10T04:46:50.352Z,1001.9
2023-05-10T04:47:51.405Z,1001.9
2023-05-10T04:48:52.454Z,1001.9
2023-05-10T04:49:53.308Z,1001.9
2023-05-10T04:50:54.390Z,1001.9
2023-05-10T04:51:55.328Z,1001.9
2023-05-10T04:52:56.378Z,1001.9
2023-05-10T04:54:05.835Z,1001.9
2023-05-10T04:54:58.364Z,1002
2023-05-10T04:55:59.326Z,1002
2023-05-10T04:57:00.388Z,1002
2023-05-10T04:58:01.365Z,1002
2023-05-10T04:59:02.363Z,1002
2023-05-10T05:00:03.332Z,1002
2023-05-10T05:01:04.366Z,1001.9
2023-05-10T05:02:05.445Z,1002
2023-05-10T05:03:06.372Z,1001.9
2023-05-10T05:04:07.430Z,1001.9
2023-05-10T05:05:08.392Z,1002
2023-05-10T05:06:09.300Z,1002
2023-05-10T05:07:10.368Z,1001.9
2023-05-10T05:08:11.362Z,1001.9
2023-05-10T05:09:12.939Z,1001.9
2023-05-10T05:10:14.578Z,1001.9
2023-05-10T05:11:15.351Z,1001.9
2023-05-10T05:12:16.353Z,1001.9
2023-05-10T05:13:17.375Z,1002
2023-05-10T05:14:18.344Z,1001.9
2023-05-10T05:15:19.428Z,1001.9
2023-05-10T05:16:20.404Z,1002
2023-05-10T05:17:21.375Z,1001.9
2023-05-10T05:18:22.341Z,1001.9
2023-05-10T05:19:23.386Z,1001.9
2023-05-10T05:20:24.382Z,1001.9
2023-05-10T05:21:25.381Z,1001.9
2023-05-10T05:22:26.392Z,1001.9
2023-05-10T05:23:27.406Z,1001.9
2023-05-10T05:24:28.361Z,1001.9
2023-05-10T05:25:29.291Z,1001.9
2023-05-10T05:26:30.369Z,1001.9
2023-05-10T05:27:31.365Z,1001.9
2023-05-10T05:28:32.362Z,1001.9
2023-05-10T05:29:33.348Z,1001.9
2023-05-10T05:30:34.366Z,1001.9
2023-05-10T05:31:35.394Z,1001.8
2023-05-10T05:32:36.452Z,1001.8
2023-05-10T05:33:37.271Z,1001.9
2023-05-10T05:34:38.411Z,1001.9
2023-05-10T05:35:39.467Z,1001.9
2023-05-10T05:36:40.375Z,1001.9
2023-05-10T05:37:41.400Z,1001.8
2023-05-10T05:38:42.362Z,1001.8
2023-05-10T05:39:43.357Z,1001.9
2023-05-10T05:40:44.405Z,1001.8
2023-05-10T05:41:45.320Z,1001.8
2023-05-10T05:42:46.451Z,1001.9
2023-05-10T05:43:47.381Z,1001.9
2023-05-10T05:44:48.401Z,1001.9
2023-05-10T05:45:49.415Z,1001.4
2023-05-10T05:46:50.367Z,1001.7
2023-05-10T05:47:51.395Z,1001.8
2023-05-10T05:48:52.360Z,1001.9
2023-05-10T05:49:53.425Z,1001.9
2023-05-10T05:50:54.379Z,1001.8
2023-05-10T05:51:55.347Z,1001.9
2023-05-10T05:52:56.375Z,1001.8
2023-05-10T05:53:57.386Z,1001.8
2023-05-10T05:54:58.440Z,1001.8
2023-05-10T05:55:59.380Z,1001.8
2023-05-10T05:57:01.283Z,1001.9
2023-05-10T05:58:01.419Z,1001.8
2023-05-10T05:59:02.409Z,1001.9
2023-05-10T06:00:03.425Z,1001.9
2023-05-10T06:01:09.378Z,1001.8
2023-05-10T06:02:10.431Z,1001.8
2023-05-10T06:03:11.420Z,1001.8
2023-05-10T06:04:12.454Z,1001.8
2023-05-10T06:05:13.496Z,1001.9
2023-05-10T06:06:14.386Z,1001.9
2023-05-10T06:07:15.421Z,1001.9
2023-05-10T06:08:16.387Z,1001.5
2023-05-10T06:09:17.605Z,1001.8
2023-05-10T06:10:18.404Z,1001.9
2023-05-10T06:11:19.436Z,1001.8
2023-05-10T06:12:20.406Z,1001.8
2023-05-10T06:13:21.459Z,1001.9
2023-05-10T06:14:22.365Z,1001.9
2023-05-10T06:15:23.383Z,1001.9
2023-05-10T06:16:24.370Z,1001.9
2023-05-10T06:17:25.418Z,1001.9
2023-05-10T06:18:26.482Z,1001.9
2023-05-10T06:19:27.402Z,1001.8
2023-05-10T06:20:28.487Z,1001.9
2023-05-10T06:21:29.336Z,1001.9
2023-05-10T06:22:30.295Z,1001.9
2023-05-10T06:23:31.372Z,1001.9
2023-05-10T06:24:32.372Z,1001.8
2023-05-10T06:25:33.380Z,1001.9
2023-05-10T06:26:34.391Z,1001.9
2023-05-10T06:27:35.361Z,1001.9
2023-05-10T06:28:36.813Z,1002
2023-05-10T06:29:38.493Z,1002
2023-05-10T06:30:39.369Z,1002
2023-05-10T06:31:40.402Z,1001.9
2023-05-10T06:32:41.671Z,1001.9
2023-05-10T06:33:42.373Z,1001.9
2023-05-10T06:34:43.429Z,1001.9
2023-05-10T06:35:44.399Z,1001.9
2023-05-10T06:36:45.584Z,1001.9
2023-05-10T06:37:46.425Z,1001.9
2023-05-10T06:38:47.404Z,1001.9
2023-05-10T06:39:48.383Z,1001.9
2023-05-10T06:40:49.373Z,1001.9
2023-05-10T06:41:50.402Z,1001.8
2023-05-10T06:42:51.400Z,1001.8
2023-05-10T06:43:52.384Z,1001.8
2023-05-10T06:44:53.393Z,1001.8
2023-05-10T06:45:54.434Z,1001.8
2023-05-10T06:46:55.421Z,1001.8
2023-05-10T06:47:56.372Z,1001.8
2023-05-10T06:48:57.375Z,1001.8
2023-05-10T06:49:58.444Z,1001.8
2023-05-10T06:50:59.450Z,1001.8
2023-05-10T06:52:00.422Z,1001.8
2023-05-10T06:53:01.364Z,1001.8
2023-05-10T06:54:02.422Z,1001.9
2023-05-10T06:55:03.381Z,1001.8
2023-05-10T06:56:04.588Z,1001.8
2023-05-10T06:57:08.902Z,1001.9
2023-05-10T06:58:06.461Z,1001.8
2023-05-10T06:59:07.387Z,1001.8
2023-05-10T07:00:08.435Z,1001.9
2023-05-10T07:01:09.668Z,1001.9
2023-05-10T07:02:11.497Z,1001.9
2023-05-10T07:03:12.526Z,1001.8
2023-05-10T07:04:13.381Z,1001.8
2023-05-10T07:05:14.421Z,1001.7
2023-05-10T07:06:25.695Z,1001.7
2023-05-10T07:07:16.428Z,1001.7
2023-05-10T07:08:17.433Z,1001.8
2023-05-10T07:09:18.483Z,1001.8
2023-05-10T07:10:19.402Z,1001.8
2023-05-10T07:11:20.446Z,1001.8
2023-05-10T07:12:21.494Z,1001.8
2023-05-10T07:13:22.600Z,1001.8
2023-05-10T07:14:23.432Z,1001.8
2023-05-10T07:15:24.468Z,1001.8
2023-05-10T07:16:25.389Z,1001.7
2023-05-10T07:17:26.627Z,1001.8
2023-05-10T07:18:27.553Z,1001.7
2023-05-10T07:19:28.379Z,1001.7
2023-05-10T07:20:29.433Z,1001.7
2023-05-10T07:21:30.517Z,1001.7
2023-05-10T07:22:31.402Z,1001.7
2023-05-10T07:23:32.425Z,1001.7
2023-05-10T07:24:33.433Z,1001.7
2023-05-10T07:25:34.424Z,1001.7
2023-05-10T07:26:35.402Z,1001.7
2023-05-10T07:27:36.424Z,1001.6
2023-05-10T07:28:37.380Z,1001.6
2023-05-10T07:29:38.418Z,1001.6
2023-05-10T07:30:39.532Z,1001.7
2023-05-10T07:31:40.518Z,1001.7
2023-05-10T07:32:41.458Z,1001.6
2023-05-10T07:33:42.405Z,1001.6
2023-05-10T07:34:43.444Z,1001.6
2023-05-10T07:35:44.461Z,1001.6
2023-05-10T07:36:45.549Z,1001.5
2023-05-10T07:37:46.424Z,1001.6
2023-05-10T07:38:47.418Z,1001.6
2023-05-10T07:39:48.426Z,1001.6
2023-05-10T07:40:49.364Z,1001.5
2023-05-10T07:41:50.457Z,1001.5
2023-05-10T07:42:51.462Z,1001.5
2023-05-10T07:43:52.448Z,1001.3
2023-05-10T07:44:53.425Z,1001.4
2023-05-10T07:45:56.246Z,1001.5
2023-05-10T07:46:55.441Z,1001.5
2023-05-10T07:47:56.591Z,1001.5
2023-05-10T07:48:57.437Z,1001.5
2023-05-10T07:49:58.420Z,1001.5
2023-05-10T07:50:59.443Z,1001.5
2023-05-10T07:52:00.448Z,1001.5
2023-05-10T07:53:01.442Z,1001.5
2023-05-10T07:54:02.519Z,1001.4
2023-05-10T07:55:03.389Z,1001.5
2023-05-10T07:56:04.410Z,1001.5
2023-05-10T07:57:05.515Z,1001.5
2023-05-10T07:58:06.524Z,1001.5
2023-05-10T07:59:07.437Z,1001.5
2023-05-10T08:00:08.447Z,1001.6
2023-05-10T08:01:09.453Z,1001.5
2023-05-10T08:02:10.663Z,1001.5
2023-05-10T08:03:11.548Z,1001.5
2023-05-10T08:04:12.493Z,1001.5
2023-05-10T08:05:13.432Z,1001.5
2023-05-10T08:06:14.408Z,1001.5
2023-05-10T08:07:15.434Z,1001.5
2023-05-10T08:08:16.435Z,1001.6
2023-05-10T08:09:17.463Z,1001.5
2023-05-10T08:10:18.495Z,1001.5
2023-05-10T08:11:19.400Z,1001.5
2023-05-10T08:12:20.516Z,1001.4
2023-05-10T08:13:21.386Z,1001.5
2023-05-10T08:14:22.471Z,1001.4
2023-05-10T08:15:23.538Z,1001.4
2023-05-10T08:16:24.500Z,1001.4
2023-05-10T08:17:25.517Z,1001.4
2023-05-10T08:18:26.506Z,1001.4
2023-05-10T08:19:27.424Z,1001.4
2023-05-10T08:20:28.408Z,1001.4
2023-05-10T08:21:29.438Z,1001.4
2023-05-10T08:22:30.732Z,1001.4
2023-05-10T08:23:31.426Z,1001.4
2023-05-10T08:24:32.517Z,1001.4
2023-05-10T08:25:33.476Z,1001.3
2023-05-10T08:26:34.485Z,1001.3
2023-05-10T08:27:35.456Z,1001.3
2023-05-10T08:28:36.434Z,1001.3
2023-05-10T08:29:46.526Z,1001.4
2023-05-10T08:30:39.442Z,1001.3
2023-05-10T08:31:40.530Z,1001.4
2023-05-10T08:32:41.599Z,1001.4
2023-05-10T08:33:44.409Z,1001.3
2023-05-10T08:34:43.446Z,1001.3
2023-05-10T08:35:44.425Z,1001.3
2023-05-10T08:36:45.592Z,1001.2
2023-05-10T08:37:46.544Z,1001.3
2023-05-10T08:38:47.922Z,1001.3
2023-05-10T08:39:48.535Z,1001.3
2023-05-10T08:40:49.377Z,1001.3
2023-05-10T08:41:50.398Z,1001.2
2023-05-10T08:42:51.498Z,1001.4
2023-05-10T08:43:52.438Z,1001.3
2023-05-10T08:44:53.478Z,1001.2
2023-05-10T08:45:54.406Z,1001.3
2023-05-10T08:46:55.554Z,1001.3
2023-05-10T08:47:56.499Z,1001.3
2023-05-10T08:48:57.461Z,1001.2
2023-05-10T08:49:58.446Z,1001.2
2023-05-10T08:50:59.447Z,1001.2
2023-05-10T08:52:00.546Z,1001.2
2023-05-10T08:53:01.462Z,1001.3
2023-05-10T08:54:02.463Z,1001.3
2023-05-10T08:55:03.500Z,1001.3
2023-05-10T08:56:04.564Z,1000.7
2023-05-10T08:57:05.575Z,1001.2
2023-05-10T08:58:06.456Z,1001.2
2023-05-10T08:59:07.501Z,1001.2
2023-05-10T09:00:08.517Z,1001.1
2023-05-10T09:01:09.599Z,1001.1
2023-05-10T09:02:10.482Z,1001.1
2023-05-10T09:03:11.531Z,1001.2
2023-05-10T09:04:12.589Z,1001.2
2023-05-10T09:05:13.519Z,1001.2
2023-05-10T09:06:14.429Z,1001.1
2023-05-10T09:07:15.642Z,1001.1
2023-05-10T09:08:16.524Z,1001.2
2023-05-10T09:09:17.522Z,1001.2
2023-05-10T09:10:18.494Z,1001.1
2023-05-10T09:11:19.486Z,1001.2
2023-05-10T09:12:20.566Z,1001.2
2023-05-10T09:13:21.569Z,1001.2
2023-05-10T09:14:22.962Z,1001.2
2023-05-10T09:15:24.523Z,1001.2
2023-05-10T09:16:25.602Z,1001.2
2023-05-10T09:17:26.610Z,1001.1
2023-05-10T09:18:28.086Z,1001.1
2023-05-10T09:19:28.641Z,1000.9
2023-05-10T09:20:29.479Z,1001.1
2023-05-10T09:21:30.441Z,1001.1
2023-05-10T09:22:31.482Z,1001.1
2023-05-10T09:23:32.632Z,1001.2
2023-05-10T09:24:33.585Z,1001.1
2023-05-10T09:25:34.492Z,1001.1
2023-05-10T09:26:35.477Z,1001.1
2023-05-10T09:27:36.545Z,1001.2
2023-05-10T09:28:37.491Z,1001.2
2023-05-10T09:29:38.540Z,1001.2
2023-05-10T09:30:39.593Z,1001.2
2023-05-10T09:31:40.482Z,1001.3
2023-05-10T09:32:41.717Z,1001.3
2023-05-10T09:33:42.619Z,1001.2
2023-05-10T09:34:43.498Z,1001.2
2023-05-10T09:35:44.536Z,1001.2
2023-05-10T09:36:45.579Z,1000.9
2023-05-10T09:37:46.493Z,1001.2
2023-05-10T09:38:47.528Z,1001.3
2023-05-10T09:39:48.530Z,1001.3
2023-05-10T09:40:49.515Z,1001.3
2023-05-10T09:41:50.539Z,1001.2
2023-05-10T09:42:51.634Z,1001.3
2023-05-10T09:43:52.498Z,1001.3
2023-05-10T09:44:53.451Z,1001.2
2023-05-10T09:45:54.530Z,1001.2
2023-05-10T09:46:55.505Z,1001.2
2023-05-10T09:47:56.601Z,1001.3
2023-05-10T09:48:57.483Z,1001.3
2023-05-10T09:49:58.529Z,1001.3
2023-05-10T09:50:59.499Z,1001.3
2023-05-10T09:52:00.546Z,1001.2
2023-05-10T09:53:01.511Z,1001.1
2023-05-10T09:54:02.565Z,1001.2
2023-05-10T09:55:03.504Z,1001.2
2023-05-10T09:56:04.580Z,1001.2
2023-05-10T09:57:05.588Z,1001.1
2023-05-10T09:58:06.532Z,1001.2
2023-05-10T09:59:07.502Z,1001.1
2023-05-10T10:00:08.572Z,1001.1
2023-05-10T10:01:09.560Z,1001.1
2023-05-10T10:02:10.521Z,1001.1
2023-05-10T10:03:11.666Z,1001.1
2023-05-10T10:04:12.623Z,1001.1
2023-05-10T10:05:13.548Z,1001
2023-05-10T10:06:22.844Z,1001.1
2023-05-10T10:07:15.642Z,1001
2023-05-10T10:08:16.737Z,1001
2023-05-10T10:09:18.589Z,1000.9
2023-05-10T10:10:19.562Z,1000.9
2023-05-10T10:11:20.472Z,1001
2023-05-10T10:12:21.530Z,1001
2023-05-10T10:13:22.501Z,1000.9
2023-05-10T10:14:23.474Z,1000.9
2023-05-10T10:15:24.581Z,1000.9
2023-05-10T10:16:25.788Z,1000.9
2023-05-10T10:17:26.563Z,1000.9
2023-05-10T10:18:27.615Z,1000.9
2023-05-10T10:19:28.461Z,1000.9
2023-05-10T10:20:29.549Z,1000.9
2023-05-10T10:21:30.521Z,1000.9
2023-05-10T10:22:31.484Z,1000.9
2023-05-10T10:23:32.513Z,1000.9
2023-05-10T10:24:33.490Z,1000.9
2023-05-10T10:25:34.597Z,1000.9
2023-05-10T10:26:35.502Z,1000.8
2023-05-10T10:27:36.775Z,1000.8
2023-05-10T10:28:37.485Z,1000.8
2023-05-10T10:29:38.500Z,1000.8
2023-05-10T10:30:39.538Z,1000.8
2023-05-10T10:31:40.586Z,1000.9
2023-05-10T10:32:41.501Z,1001
2023-05-10T10:33:42.569Z,1001
2023-05-10T10:34:43.511Z,1000.9
2023-05-10T10:35:44.543Z,1000.9
2023-05-10T10:36:45.708Z,1000.9
2023-05-10T10:37:46.590Z,1000.9
2023-05-10T10:38:47.582Z,1000.9
2023-05-10T10:39:48.627Z,1001
2023-05-10T10:40:49.600Z,1001
2023-05-10T10:41:50.570Z,1000.9
2023-05-10T10:42:51.540Z,1000.9
2023-05-10T10:43:52.592Z,1000.9
2023-05-10T10:44:53.591Z,1000.9
2023-05-10T10:45:55.105Z,1000.9
2023-05-10T10:46:56.709Z,1000.9
2023-05-10T10:47:57.594Z,1000.9
2023-05-10T10:48:58.602Z,1000.8
2023-05-10T10:49:59.572Z,1000.9
2023-05-10T10:51:00.604Z,1000.8
2023-05-10T10:52:01.572Z,1000.8
2023-05-10T10:53:02.541Z,1000.8
2023-05-10T10:54:03.646Z,1000.8
2023-05-10T10:55:04.546Z,1000.8
2023-05-10T10:56:05.643Z,1000.8
2023-05-10T10:57:06.574Z,1000.8
2023-05-10T10:58:07.518Z,1000.8
2023-05-10T10:59:08.511Z,1000.8
2023-05-10T11:00:09.618Z,1000.8
2023-05-10T11:01:10.653Z,1000.8
2023-05-10T11:02:11.561Z,1000.8
2023-05-10T11:03:12.658Z,1000.8
2023-05-10T11:04:13.623Z,1000.8
2023-05-10T11:05:14.757Z,1000.9
2023-05-10T11:06:15.483Z,1000.6
2023-05-10T11:07:16.591Z,1000.7
2023-05-10T11:08:17.570Z,1000.8
2023-05-10T11:09:18.538Z,1000.8
2023-05-10T11:10:19.580Z,1000.8
2023-05-10T11:11:20.550Z,1000.8
2023-05-10T11:12:21.569Z,1000.7
2023-05-10T11:13:22.540Z,1000.7
2023-05-10T11:14:23.583Z,1000.8
2023-05-10T11:15:24.584Z,1000.7
2023-05-10T11:16:25.664Z,1000.8
2023-05-10T11:17:26.629Z,1000.8
2023-05-10T11:18:27.807Z,1000.7
2023-05-10T11:19:28.590Z,1000.7
2023-05-10T11:20:29.540Z,1000.7
2023-05-10T11:21:30.560Z,1000.7
2023-05-10T11:22:31.601Z,1000.8
2023-05-10T11:23:32.515Z,1000.8
2023-05-10T11:24:33.559Z,1000.7
2023-05-10T11:25:34.540Z,1000.6
2023-05-10T11:26:35.536Z,1000.6
2023-05-10T11:27:37.701Z,1000.6
2023-05-10T11:28:39.565Z,1000.6
2023-05-10T11:29:40.582Z,1000.6
2023-05-10T11:30:41.655Z,1000.6
2023-05-10T11:31:42.607Z,1000.6
2023-05-10T11:32:43.784Z,1000.6
2023-05-10T11:33:44.598Z,1000.5
2023-05-10T11:34:45.619Z,1000.5
2023-05-10T11:35:46.567Z,1000.5
2023-05-10T11:36:47.520Z,1000.5
2023-05-10T11:37:48.656Z,1000.6
2023-05-10T11:38:49.552Z,1000.6
2023-05-10T11:39:50.575Z,1000.6
2023-05-10T11:40:51.595Z,1000.6
2023-05-10T11:41:52.601Z,1000.5
2023-05-10T11:42:53.642Z,1000.6
2023-05-10T11:43:54.570Z,1000.6
2023-05-10T11:44:55.563Z,1000.6
2023-05-10T11:45:56.480Z,1000.6
2023-05-10T11:46:57.563Z,1000.7
2023-05-10T11:47:59.127Z,1000.7
2023-05-10T11:49:00.605Z,1000.6
2023-05-10T11:50:01.583Z,1000.6
2023-05-10T11:51:02.603Z,1000.6
2023-05-10T11:52:03.584Z,1000.5
2023-05-10T11:53:04.562Z,1000.5
2023-05-10T11:54:05.837Z,1000.6
2023-05-10T11:55:07.628Z,1000.6
2023-05-10T11:56:08.571Z,1000.5
2023-05-10T11:57:09.575Z,1000.5
2023-05-10T11:58:10.577Z,1000.6
2023-05-10T11:59:11.585Z,1000.7
2023-05-10T12:00:12.645Z,1000.7
2023-05-10T12:01:13.760Z,1000.7
2023-05-10T12:02:14.703Z,1000.8
2023-05-10T12:03:15.747Z,1000.7
2023-05-10T12:04:16.770Z,1000.6
2023-05-10T12:05:17.541Z,1000.6
2023-05-10T12:06:18.524Z,1000.6
2023-05-10T12:07:19.536Z,1000.6
2023-05-10T12:08:20.650Z,1000.6
2023-05-10T12:09:31.807Z,1000.6
2023-05-10T12:10:22.630Z,1000.7
2023-05-10T12:11:23.605Z,1000.6
2023-05-10T12:12:24.561Z,1000.7
2023-05-10T12:13:25.620Z,1000.6
2023-05-10T12:14:26.600Z,1000.7
2023-05-10T12:15:27.621Z,1000.7
2023-05-10T12:16:28.565Z,1000.7
2023-05-10T12:17:29.612Z,1000.7
2023-05-10T12:18:30.557Z,1000.7
2023-05-10T12:19:31.682Z,1000.7
2023-05-10T12:20:32.564Z,1000.7
2023-05-10T12:21:33.574Z,1000.7
2023-05-10T12:22:34.638Z,1000.8
2023-05-10T12:23:35.639Z,1000.7
2023-05-10T12:24:37.719Z,1000.8
2023-05-10T12:25:39.659Z,1000.8
2023-05-10T12:28:12.675Z,1000.6
2023-05-10T12:29:13.740Z,1000.6
2023-05-10T12:30:14.664Z,1000.7
2023-05-10T12:31:15.696Z,1000.7
2023-05-10T12:32:16.630Z,1000.6
2023-05-10T12:33:17.587Z,1000.5
2023-05-10T12:34:18.671Z,1000.6
2023-05-10T12:35:19.699Z,1000.6
2023-05-10T12:36:20.612Z,1000.8
2023-05-10T12:37:21.623Z,1000.8
2023-05-10T12:38:22.649Z,1000.8
2023-05-10T12:39:23.703Z,1000.8
2023-05-10T12:40:24.561Z,1000.8
2023-05-10T12:41:25.693Z,1000.8
2023-05-10T12:42:26.577Z,1000.6
2023-05-10T12:43:27.574Z,1000.1
2023-05-10T12:44:28.668Z,1000.6
2023-05-10T12:45:29.564Z,1000.7
2023-05-10T12:46:30.755Z,1000.7
2023-05-10T12:47:31.638Z,1000.7
2023-05-10T12:48:32.640Z,1000.7
2023-05-10T12:49:33.664Z,1000.6
2023-05-10T12:50:34.544Z,1000.6